Three Lakes, Wisconsin
Current Conditions -  °F | °C
As of 6:35 PM on Friday 24 Oct 2014 (Local Time) from KEGV Reporting Station
Overcast Overcast  
Wind Chill: 56°   Ceiling: 2000
Heat Index: 56°   Visibility: 10mi
Dew Point: 44°   Wind: 9mph
Humidity: 65%   Direction: 220°SW
Pressure: 29.84"   Gusts: NA
Location:  45.8°N, 89.16°W
Report Text: KEGV 242335Z AUTO 22008KT 10SM OVC020 13/07 A2984 RMK AO2 T01330068
Loading
Personal Weather Stations






























Interactive Weather Map
Tropical Storm Tracking
New forecast layout! Learn more

10-Day Weather Forecast

Advertisements
Track Severe Weather on mobile